Time;durP1;ratioP1;P1;durP2;ratioP2;P2;SDS_P1;SDS_P2;PMS_P1;PMS_P2;Temp;Humidity;BMP_temperature;BMP_pressure;BME280_temperature;BME280_humidity;BME280_pressure;Samples;Min_cycle;Max_cycle;Signal;HPM_P1;HPM_P2
2022/07/21 00:01:40;;;;;;;24.83;22.47;;;18.50;99.90;;;;;;5034643;28;20468;-66
2022/07/21 00:04:07;;;;;;;23.10;21.50;;;18.60;99.90;;;;;;5040072;28;20460;-66
2022/07/21 00:06:34;;;;;;;23.07;21.40;;;18.60;99.90;;;;;;5033058;28;20461;-66
2022/07/21 00:09:01;;;;;;;24.07;22.30;;;18.40;99.90;;;;;;5037267;28;20457;-66
2022/07/21 00:11:28;;;;;;;23.00;21.10;;;18.40;99.90;;;;;;5035048;28;20475;-66
2022/07/21 00:13:55;;;;;;;23.33;21.57;;;18.40;99.90;;;;;;5034522;28;21025;-66
2022/07/21 00:16:23;;;;;;;22.23;20.43;;;18.40;99.90;;;;;;5034254;28;20962;-66
2022/07/21 00:18:51;;;;;;;22.90;21.10;;;18.50;99.90;;;;;;5039414;28;20589;-67
2022/07/21 00:21:18;;;;;;;21.30;19.80;;;18.50;99.90;;;;;;5041625;28;20460;-66
2022/07/21 00:23:46;;;;;;;20.03;18.67;;;18.70;99.90;;;;;;5039293;28;20463;-66
2022/07/21 00:26:13;;;;;;;19.77;18.40;;;18.80;99.90;;;;;;5038280;28;20466;-66
2022/07/21 00:28:39;;;;;;;21.57;19.70;;;18.70;99.90;;;;;;5034944;28;20480;-66
2022/07/21 00:31:06;;;;;;;21.13;19.40;;;18.50;99.90;;;;;;5038657;28;20471;-66
2022/07/21 00:33:33;;;;;;;21.40;19.80;;;18.40;99.90;;;;;;5033588;28;20511;-66
2022/07/21 00:36:01;;;;;;;21.40;19.70;;;18.50;99.90;;;;;;5037746;28;20464;-65
2022/07/21 00:38:28;;;;;;;22.27;20.77;;;18.40;99.90;;;;;;5039069;28;20860;-65
2022/07/21 00:40:55;;;;;;;23.13;21.57;;;18.40;99.90;;;;;;5033777;28;20572;-65
2022/07/21 00:43:23;;;;;;;24.03;22.00;;;18.40;99.90;;;;;;5035017;28;20558;-65
2022/07/21 00:45:53;;;;;;;21.73;20.23;;;18.50;99.90;;;;;;5036455;28;20518;-66
2022/07/21 00:48:19;;;;;;;20.50;19.10;;;18.50;99.90;;;;;;5033099;28;20829;-65
2022/07/21 00:50:46;;;;;;;19.57;18.13;;;18.50;99.90;;;;;;5037497;28;20468;-66
2022/07/21 00:53:15;;;;;;;18.67;17.27;;;18.60;99.90;;;;;;5041715;28;20468;-66
2022/07/21 00:55:43;;;;;;;18.73;17.43;;;18.60;99.90;;;;;;5040154;28;20789;-65
2022/07/21 00:58:11;;;;;;;18.40;17.00;;;18.60;99.90;;;;;;5045528;28;20487;-66
2022/07/21 01:00:39;;;;;;;18.60;17.27;;;18.60;99.90;;;;;;5041962;28;20850;-66
2022/07/21 01:03:05;;;;;;;18.43;17.03;;;18.60;99.90;;;;;;5039819;28;20467;-66
2022/07/21 01:05:33;;;;;;;15.90;14.90;;;18.60;99.90;;;;;;5042875;28;20467;-66
2022/07/21 01:08:02;;;;;;;16.63;15.33;;;18.60;99.90;;;;;;5041175;28;20474;-66
2022/07/21 01:10:32;;;;;;;18.00;16.73;;;18.60;99.90;;;;;;5038370;28;20459;-66
2022/07/21 01:13:00;;;;;;;17.03;15.63;;;18.60;99.90;;;;;;5038335;28;20846;-66
2022/07/21 01:15:27;;;;;;;16.37;14.87;;;18.60;99.90;;;;;;5041433;28;20488;-66
2022/07/21 01:17:55;;;;;;;15.53;14.23;;;18.60;99.90;;;;;;5039593;28;20484;-66
2022/07/21 01:20:24;;;;;;;15.27;13.97;;;18.80;99.90;;;;;;5041859;28;20460;-66
2022/07/21 01:22:55;;;;;;;14.87;13.60;;;18.80;99.90;;;;;;5046312;28;20467;-66
2022/07/21 01:25:22;;;;;;;13.97;12.87;;;18.80;99.90;;;;;;5044704;28;20506;-67
2022/07/21 01:27:50;;;;;;;14.70;13.20;;;18.90;99.90;;;;;;5046638;28;20460;-66
2022/07/21 01:30:17;;;;;;;14.77;13.33;;;18.90;99.90;;;;;;5043532;28;20459;-65
2022/07/21 01:32:44;;;;;;;13.43;12.03;;;18.90;99.90;;;;;;5043206;28;20484;-66
2022/07/21 01:35:13;;;;;;;13.40;12.30;;;18.90;99.90;;;;;;5045119;28;20471;-66
2022/07/21 01:37:43;;;;;;;14.47;12.50;;;18.90;99.90;;;;;;5044218;28;20902;-66
2022/07/21 01:42:57;;;;;;;14.17;12.97;;;18.90;99.90;;;;;;5048733;28;21110;-65
2022/07/21 01:45:24;;;;;;;13.10;12.03;;;18.80;99.90;;;;;;5046093;28;20475;-66
2022/07/21 01:47:51;;;;;;;14.73;13.07;;;19.00;99.90;;;;;;5043059;28;20483;-67
2022/07/21 01:50:20;;;;;;;13.30;12.10;;;19.00;99.90;;;;;;5044988;28;20485;-65
2022/07/21 01:52:49;;;;;;;13.03;11.50;;;19.00;99.90;;;;;;5044550;28;20824;-66
2022/07/21 01:55:17;;;;;;;14.40;13.00;;;18.90;99.90;;;;;;5041965;28;20467;-67
2022/07/21 01:57:44;;;;;;;13.43;12.00;;;19.10;99.90;;;;;;5041558;28;20855;-66
2022/07/21 02:00:12;;;;;;;16.10;12.60;;;19.10;99.90;;;;;;5038252;28;20960;-67
2022/07/21 02:02:39;;;;;;;15.30;12.20;;;19.20;99.90;;;;;;5040450;28;20457;-66
2022/07/21 02:05:06;;;;;;;13.73;12.50;;;19.10;99.90;;;;;;5039870;28;20479;-67
2022/07/21 02:07:33;;;;;;;13.27;11.87;;;19.10;99.90;;;;;;5046046;28;20458;-66
2022/07/21 02:10:00;;;;;;;13.53;12.33;;;19.10;99.90;;;;;;5044026;28;20506;-66
2022/07/21 02:12:29;;;;;;;14.53;13.07;;;19.10;99.90;;;;;;5045403;28;20467;-66
2022/07/21 02:14:56;;;;;;;16.87;13.37;;;19.10;99.90;;;;;;5035804;28;20586;-66
2022/07/21 02:17:23;;;;;;;15.70;14.10;;;19.10;99.90;;;;;;5047844;28;20474;-67
2022/07/21 02:19:51;;;;;;;16.30;14.60;;;19.10;99.90;;;;;;5043603;28;20494;-66
2022/07/21 02:22:18;;;;;;;16.17;14.57;;;19.10;99.90;;;;;;5043057;28;20984;-65
2022/07/21 02:24:45;;;;;;;16.23;14.73;;;18.90;99.90;;;;;;5040128;28;20487;-65
2022/07/21 02:27:12;;;;;;;18.20;16.60;;;19.00;99.90;;;;;;5041851;28;20451;-66
2022/07/21 02:29:40;;;;;;;20.03;17.97;;;18.90;99.90;;;;;;5044591;28;20468;-66
2022/07/21 02:32:07;;;;;;;20.93;18.43;;;19.00;99.90;;;;;;5045024;28;20482;-68
2022/07/21 02:34:35;;;;;;;18.87;17.27;;;18.90;99.90;;;;;;5044283;28;20453;-66
2022/07/21 02:37:01;;;;;;;18.63;16.90;;;18.80;99.90;;;;;;5041251;28;20476;-66
2022/07/21 02:39:30;;;;;;;20.23;18.33;;;18.80;99.90;;;;;;5043865;28;20491;-67
2022/07/21 02:41:57;;;;;;;19.10;17.40;;;18.90;99.90;;;;;;5041627;28;20467;-65
2022/07/21 02:44:23;;;;;;;20.93;18.97;;;19.00;99.90;;;;;;5045785;28;20460;-66
2022/07/21 02:46:52;;;;;;;21.83;19.83;;;19.00;99.90;;;;;;5048076;28;20491;-67
2022/07/21 02:49:19;;;;;;;18.63;16.80;;;19.10;99.90;;;;;;5044189;28;20471;-66
2022/07/21 02:51:47;;;;;;;18.33;16.87;;;19.10;99.90;;;;;;5042421;28;20463;-67
2022/07/21 02:54:14;;;;;;;20.73;18.27;;;19.00;99.90;;;;;;5043609;28;20469;-66
2022/07/21 02:56:41;;;;;;;19.10;17.20;;;19.10;99.90;;;;;;5044408;28;20464;-67
2022/07/21 02:59:08;;;;;;;20.67;18.50;;;19.10;99.90;;;;;;5046473;28;21053;-67
2022/07/21 03:01:35;;;;;;;20.90;19.00;;;19.00;99.90;;;;;;5039469;28;20473;-66
2022/07/21 03:04:04;;;;;;;21.47;19.40;;;19.00;99.90;;;;;;5043961;28;20468;-67
2022/07/21 03:06:30;;;;;;;20.77;18.97;;;19.00;99.90;;;;;;5043982;28;20468;-66
2022/07/21 03:08:57;;;;;;;20.73;18.77;;;19.00;99.90;;;;;;5043404;28;20464;-66
2022/07/21 03:11:25;;;;;;;21.17;19.07;;;19.00;99.90;;;;;;5045087;28;20464;-66
2022/07/21 03:13:52;;;;;;;21.50;19.50;;;19.00;99.90;;;;;;5044331;28;20456;-66
2022/07/21 03:16:19;;;;;;;20.47;18.73;;;19.10;99.90;;;;;;5042110;28;20487;-66
2022/07/21 03:18:46;;;;;;;25.17;18.80;;;19.00;99.90;;;;;;5035572;28;20504;-67
2022/07/21 03:21:14;;;;;;;22.77;20.53;;;18.90;99.90;;;;;;5040558;28;20522;-66
2022/07/21 03:23:45;;;;;;;22.33;20.23;;;18.80;99.90;;;;;;5039341;28;20470;-66
2022/07/21 03:26:13;;;;;;;22.90;20.93;;;18.80;99.90;;;;;;5042079;28;20460;-65
2022/07/21 03:28:40;;;;;;;21.73;19.63;;;18.70;99.90;;;;;;5041012;28;20518;-67
2022/07/21 03:31:07;;;;;;;22.07;20.07;;;18.70;99.90;;;;;;5036969;28;20462;-67
2022/07/21 03:33:35;;;;;;;23.00;21.20;;;18.70;99.90;;;;;;5047266;28;20561;-66
2022/07/21 03:36:02;;;;;;;22.40;20.50;;;18.80;99.90;;;;;;5043835;28;20464;-67
2022/07/21 03:38:30;;;;;;;21.60;19.80;;;19.00;99.90;;;;;;5044848;28;20486;-66
2022/07/21 03:40:57;;;;;;;23.00;20.90;;;19.00;99.90;;;;;;5039499;28;20471;-65
2022/07/21 03:43:24;;;;;;;22.37;20.53;;;19.00;99.90;;;;;;5043476;28;20469;-66
2022/07/21 03:45:52;;;;;;;24.47;22.17;;;19.00;99.90;;;;;;5045633;28;20988;-66
2022/07/21 03:48:18;;;;;;;25.67;23.30;;;19.10;99.90;;;;;;5046802;28;20989;-66
2022/07/21 03:50:46;;;;;;;26.53;24.03;;;19.10;99.90;;;;;;5042265;28;20501;-67
2022/07/21 03:53:13;;;;;;;27.37;25.17;;;18.90;99.90;;;;;;5042440;28;20569;-66
2022/07/21 03:55:41;;;;;;;26.57;24.23;;;18.90;99.90;;;;;;5041498;28;20477;-65
2022/07/21 03:58:09;;;;;;;25.80;23.60;;;19.00;99.90;;;;;;5034658;28;20465;-66
2022/07/21 04:00:39;;;;;;;27.03;24.47;;;19.00;99.90;;;;;;5040520;28;20515;-67
2022/07/21 04:03:06;;;;;;;28.10;25.67;;;19.10;99.90;;;;;;5021618;28;21097;-66
2022/07/21 04:05:34;;;;;;;27.27;24.77;;;19.00;99.90;;;;;;5014496;28;20896;-67
2022/07/21 04:08:02;;;;;;;27.00;24.47;;;19.00;99.90;;;;;;5013725;28;20484;-67
2022/07/21 04:10:30;;;;;;;25.47;23.30;;;19.00;99.90;;;;;;5013385;28;20757;-66
2022/07/21 04:13:01;;;;;;;25.50;23.33;;;18.90;99.90;;;;;;5015987;28;20469;-67
2022/07/21 04:15:28;;;;;;;25.80;23.70;;;18.80;99.90;;;;;;5016115;28;21231;-66
2022/07/21 04:17:56;;;;;;;26.90;24.40;;;19.00;99.90;;;;;;5014157;28;21167;-67
2022/07/21 04:20:23;;;;;;;30.40;23.97;;;18.90;99.90;;;;;;5016353;28;20899;-66
2022/07/21 04:22:51;;;;;;;25.13;22.73;;;18.90;99.90;;;;;;5016105;28;20459;-67
2022/07/21 04:25:19;;;;;;;25.30;23.20;;;19.00;99.90;;;;;;5016143;28;20460;-66
2022/07/21 04:27:47;;;;;;;25.50;23.30;;;18.90;99.90;;;;;;5016446;28;20476;-67
2022/07/21 04:30:18;;;;;;;24.13;21.90;;;18.90;99.90;;;;;;5016907;28;20457;-68
2022/07/21 04:32:46;;;;;;;24.73;22.83;;;18.90;99.90;;;;;;5019217;28;20572;-66
2022/07/21 04:35:14;;;;;;;31.03;23.30;;;18.90;99.90;;;;;;5020773;28;20514;-65
2022/07/21 04:37:41;;;;;;;26.70;23.83;;;18.80;99.90;;;;;;5020137;28;20498;-68
2022/07/21 04:40:10;;;;;;;27.10;24.67;;;18.90;99.90;;;;;;5018184;28;20886;-67
2022/07/21 04:42:38;;;;;;;26.07;23.63;;;18.90;99.90;;;;;;5040173;28;20946;-67
2022/07/21 04:45:07;;;;;;;24.80;22.50;;;19.00;99.90;;;;;;5044762;28;20456;-67
2022/07/21 04:47:43;;;;;;;26.80;24.30;;;19.00;99.90;;;;;;5042514;28;20467;-66
2022/07/21 04:50:10;;;;;;;25.07;22.43;;;19.00;99.90;;;;;;5017886;28;20504;-66
2022/07/21 04:52:37;;;;;;;23.70;21.60;;;19.00;99.90;;;;;;5017244;28;20532;-67
2022/07/21 04:55:04;;;;;;;24.27;21.67;;;19.00;99.90;;;;;;5019588;28;20478;-67
2022/07/21 04:57:31;;;;;;;24.67;21.50;;;19.00;99.90;;;;;;5019561;28;20467;-66
2022/07/21 04:59:58;;;;;;;25.40;22.53;;;18.80;99.90;;;;;;5018923;28;20499;-66
2022/07/21 05:02:25;;;;;;;26.53;21.43;;;18.80;99.90;;;;;;5018706;28;20469;-66
2022/07/21 05:04:53;;;;;;;22.23;20.00;;;18.80;99.90;;;;;;5019806;28;20472;-66
2022/07/21 05:07:20;;;;;;;24.43;21.93;;;18.80;99.90;;;;;;5018162;28;20980;-67
2022/07/21 05:09:47;;;;;;;23.67;20.60;;;18.80;99.90;;;;;;5017413;28;20456;-66
2022/07/21 05:12:13;;;;;;;21.47;19.20;;;18.80;99.90;;;;;;5018509;28;20487;-67
2022/07/21 05:14:40;;;;;;;20.53;18.40;;;18.90;99.90;;;;;;5017705;28;20459;-66
2022/07/21 05:17:07;;;;;;;21.10;18.80;;;18.90;99.90;;;;;;5018645;28;20972;-67
2022/07/21 05:19:34;;;;;;;22.53;20.23;;;18.80;99.90;;;;;;5018246;28;21304;-68
2022/07/21 05:22:02;;;;;;;21.30;19.20;;;18.90;99.90;;;;;;5017693;28;20777;-67
2022/07/21 05:24:29;;;;;;;21.07;18.50;;;18.90;99.90;;;;;;5018986;28;20479;-66
2022/07/21 05:26:55;;;;;;;19.70;17.60;;;18.90;99.90;;;;;;5019241;28;21475;-67
2022/07/21 05:29:22;;;;;;;19.80;17.70;;;19.00;99.90;;;;;;5017665;28;20464;-67
2022/07/21 05:31:49;;;;;;;19.90;17.83;;;19.10;99.90;;;;;;5019174;28;20893;-66
2022/07/21 05:34:15;;;;;;;19.80;17.80;;;19.10;99.90;;;;;;5019443;28;20569;-66
2022/07/21 05:36:43;;;;;;;19.60;17.80;;;19.30;99.90;;;;;;5018508;28;20496;-66
2022/07/21 05:39:11;;;;;;;19.23;16.93;;;19.50;99.90;;;;;;5016588;28;20484;-65
2022/07/21 05:41:38;;;;;;;21.20;16.20;;;19.70;99.90;;;;;;5018615;28;20516;-66
2022/07/21 05:44:05;;;;;;;17.67;15.90;;;19.80;99.90;;;;;;5016298;28;20480;-66
2022/07/21 05:46:32;;;;;;;17.23;15.43;;;20.10;99.90;;;;;;5012075;28;20452;-67
2022/07/21 05:48:59;;;;;;;23.13;16.07;;;20.10;99.90;;;;;;5013375;28;20463;-66
2022/07/21 05:51:40;;;;;;;17.57;15.87;;;20.10;99.90;;;;;;5015639;28;20460;-65
2022/07/21 05:54:07;;;;;;;17.27;15.67;;;20.20;99.90;;;;;;5014439;28;20974;-67
2022/07/21 05:56:35;;;;;;;17.33;15.50;;;20.20;99.90;;;;;;5015153;28;20468;-67
2022/07/21 05:59:02;;;;;;;17.33;15.53;;;20.20;99.90;;;;;;5014679;28;20467;-66
2022/07/21 06:01:29;;;;;;;17.43;15.70;;;20.20;99.90;;;;;;5012591;28;20489;-67
2022/07/21 06:03:56;;;;;;;17.00;15.40;;;20.20;99.90;;;;;;5016105;28;20893;-67
2022/07/21 06:06:23;;;;;;;17.73;16.00;;;20.20;99.90;;;;;;5017220;28;20467;-66
2022/07/21 06:08:51;;;;;;;20.37;18.43;;;20.20;99.90;;;;;;5017143;28;20544;-66
2022/07/21 06:11:20;;;;;;;17.40;15.90;;;20.30;99.90;;;;;;5017395;28;20464;-67
2022/07/21 06:13:49;;;;;;;23.90;16.87;;;20.40;99.90;;;;;;5016970;28;20874;-66
2022/07/21 06:16:15;;;;;;;18.30;16.40;;;20.40;99.90;;;;;;5017293;28;20498;-66
2022/07/21 06:18:42;;;;;;;19.03;17.07;;;20.60;99.90;;;;;;5012998;28;20461;-67
2022/07/21 06:21:09;;;;;;;18.37;16.47;;;20.70;99.90;;;;;;5012184;28;20862;-66
2022/07/21 06:23:36;;;;;;;17.97;16.43;;;20.90;99.90;;;;;;5013626;28;21215;-67
2022/07/21 06:26:03;;;;;;;17.70;15.90;;;21.00;99.90;;;;;;5023249;28;20464;-66
2022/07/21 06:28:30;;;;;;;18.70;16.90;;;21.20;99.90;;;;;;5031698;28;20580;-67
2022/07/21 06:30:58;;;;;;;16.40;15.10;;;21.00;99.90;;;;;;5010051;28;20941;-66
2022/07/21 06:33:25;;;;;;;17.03;15.53;;;21.00;99.90;;;;;;5035288;28;20482;-67
2022/07/21 06:35:52;;;;;;;19.63;16.13;;;21.00;99.90;;;;;;5027431;28;20554;-68
2022/07/21 06:38:18;;;;;;;17.57;16.17;;;20.90;99.90;;;;;;5011671;28;20483;-68
2022/07/21 06:40:45;;;;;;;17.90;16.33;;;21.00;99.90;;;;;;5011681;28;20662;-69
2022/07/21 06:43:12;;;;;;;16.63;15.10;;;20.90;99.90;;;;;;5013155;28;20588;-68
2022/07/21 06:45:40;;;;;;;17.93;16.60;;;20.90;99.90;;;;;;5012569;28;20472;-68
2022/07/21 06:48:12;;;;;;;18.60;16.47;;;20.80;99.90;;;;;;5012322;28;20467;-68
2022/07/21 06:50:39;;;;;;;20.40;16.53;;;21.00;99.90;;;;;;5011724;28;20655;-68
2022/07/21 06:53:06;;;;;;;17.07;15.43;;;21.10;99.90;;;;;;5012543;28;20565;-68
2022/07/21 06:55:34;;;;;;;17.87;16.40;;;21.50;99.90;;;;;;5013514;28;20468;-67
2022/07/21 06:58:10;;;;;;;19.03;17.50;;;21.90;99.90;;;;;;5011991;28;21246;-68
2022/07/21 07:00:37;;;;;;;18.10;16.73;;;22.10;99.90;;;;;;5011824;28;20484;-66
2022/07/21 07:03:04;;;;;;;18.80;17.30;;;22.30;99.90;;;;;;5012235;28;21052;-68
2022/07/21 07:05:47;;;;;;;19.30;17.80;;;22.50;99.90;;;;;;5012223;28;20471;-68
2022/07/21 07:08:14;;;;;;;20.00;18.50;;;22.10;99.90;;;;;;5011850;28;20483;-68
2022/07/21 07:10:42;;;;;;;18.50;17.30;;;22.00;99.90;;;;;;5013391;28;20487;-68
2022/07/21 07:13:09;;;;;;;19.37;17.43;;;21.80;99.90;;;;;;5012886;28;20470;-67
2022/07/21 07:15:36;;;;;;;19.47;17.40;;;21.70;99.90;;;;;;5012643;28;21081;-68
2022/07/21 07:18:03;;;;;;;19.10;17.50;;;21.80;99.90;;;;;;5012699;28;20456;-69
2022/07/21 07:20:32;;;;;;;18.80;17.50;;;22.30;99.90;;;;;;5011348;28;21070;-68
2022/07/21 07:22:58;;;;;;;19.00;17.70;;;22.40;99.90;;;;;;5012877;28;20851;-67
2022/07/21 07:25:25;;;;;;;18.97;17.63;;;22.40;99.90;;;;;;5012824;28;20469;-67
2022/07/21 07:27:54;;;;;;;20.53;18.90;;;22.50;99.90;;;;;;5012326;28;20570;-67
2022/07/21 07:30:21;;;;;;;18.67;17.33;;;22.70;99.90;;;;;;5011981;28;21168;-69
2022/07/21 07:32:48;;;;;;;19.40;18.00;;;22.70;99.90;;;;;;5012623;28;20623;-67
2022/07/21 07:35:16;;;;;;;19.57;18.03;;;22.70;99.90;;;;;;5011579;28;20587;-67
2022/07/21 07:37:46;;;;;;;20.07;18.63;;;23.00;99.90;;;;;;5011811;28;20855;-67
2022/07/21 07:40:15;;;;;;;21.10;19.53;;;23.00;99.90;;;;;;5011813;28;20506;-68
2022/07/21 07:42:43;;;;;;;21.60;19.73;;;23.00;99.90;;;;;;5011553;28;20989;-67
2022/07/21 07:45:11;;;;;;;20.83;19.43;;;22.90;99.90;;;;;;5011329;28;20449;-67
2022/07/21 07:47:38;;;;;;;21.50;19.90;;;22.80;99.90;;;;;;5010568;28;20932;-68
2022/07/21 07:50:08;;;;;;;21.40;19.70;;;22.70;99.90;;;;;;5011063;28;20860;-68
2022/07/21 07:52:35;;;;;;;22.03;20.20;;;22.70;99.90;;;;;;5011089;28;20469;-68
2022/07/21 07:55:07;;;;;;;21.53;20.03;;;22.50;99.90;;;;;;5012253;28;20640;-69
2022/07/21 07:57:34;;;;;;;21.60;19.87;;;22.80;99.90;;;;;;5010884;28;20464;-68
2022/07/21 08:00:01;;;;;;;22.40;20.87;;;22.70;99.90;;;;;;5010804;28;20496;-68
2022/07/21 08:02:28;;;;;;;22.77;21.07;;;23.10;99.90;;;;;;5009217;28;20456;-69
2022/07/21 08:04:55;;;;;;;22.00;20.40;;;23.20;99.90;;;;;;5011883;28;20796;-68
2022/07/21 08:07:22;;;;;;;21.30;19.90;;;23.20;99.90;;;;;;5011427;28;20753;-68
2022/07/21 08:09:48;;;;;;;23.03;20.73;;;22.90;99.90;;;;;;5010364;28;20785;-70
2022/07/21 08:12:17;;;;;;;23.20;21.20;;;23.00;99.90;;;;;;5010224;28;20463;-68
2022/07/21 08:14:44;;;;;;;21.20;19.70;;;23.10;99.90;;;;;;5011077;28;21231;-69
2022/07/21 08:17:10;;;;;;;22.40;20.70;;;23.00;99.90;;;;;;5010440;28;20844;-68
2022/07/21 08:19:37;;;;;;;23.07;21.17;;;23.70;99.90;;;;;;5010924;28;20548;-68
2022/07/21 08:22:04;;;;;;;22.57;20.87;;;23.90;99.90;;;;;;5010339;28;20751;-70
2022/07/21 08:24:31;;;;;;;22.87;20.80;;;23.80;99.90;;;;;;5010840;28;20492;-68
2022/07/21 08:26:58;;;;;;;22.07;20.23;;;24.00;99.90;;;;;;5012042;28;20460;-70
2022/07/21 08:29:27;;;;;;;21.20;19.70;;;24.00;99.90;;;;;;5010488;28;21036;-69
2022/07/21 08:31:53;;;;;;;22.53;20.93;;;24.00;99.90;;;;;;5011046;28;21011;-69
2022/07/21 08:34:20;;;;;;;21.17;19.87;;;24.10;99.90;;;;;;5012010;28;20479;-69
2022/07/21 08:36:47;;;;;;;23.23;21.53;;;24.60;99.90;;;;;;5011778;28;20480;-68
2022/07/21 08:39:14;;;;;;;22.30;20.80;;;24.80;99.90;;;;;;5010371;28;20967;-68
2022/07/21 08:41:41;;;;;;;22.17;20.60;;;24.90;99.90;;;;;;5011566;28;20491;-69
2022/07/21 08:44:10;;;;;;;21.70;20.07;;;24.80;99.90;;;;;;5008161;28;20935;-68
2022/07/21 08:46:41;;;;;;;22.03;20.57;;;24.70;99.90;;;;;;5010542;28;21203;-68
2022/07/21 08:49:10;;;;;;;22.53;20.97;;;24.60;99.90;;;;;;5010955;28;20947;-70
2022/07/21 08:51:37;;;;;;;22.80;21.10;;;24.40;99.90;;;;;;5010705;28;22617;-68
2022/07/21 08:54:05;;;;;;;22.57;20.87;;;24.50;99.90;;;;;;5011313;28;20473;-69
2022/07/21 08:56:32;;;;;;;23.23;20.90;;;24.30;99.90;;;;;;5008995;28;20824;-68
2022/07/21 08:58:59;;;;;;;23.07;21.17;;;24.20;99.90;;;;;;5009777;28;20506;-67
2022/07/21 09:01:26;;;;;;;22.40;20.33;;;23.70;99.90;;;;;;5008547;28;20500;-67
2022/07/21 09:03:55;;;;;;;22.00;20.33;;;23.70;99.90;;;;;;5009993;28;20448;-67
2022/07/21 09:06:22;;;;;;;22.17;20.47;;;23.80;99.90;;;;;;5010640;28;20468;-70
2022/07/21 09:08:51;;;;;;;23.10;21.20;;;24.30;99.90;;;;;;5019169;28;21023;-67
2022/07/21 09:11:21;;;;;;;21.07;19.40;;;24.20;99.90;;;;;;5034414;28;20475;-67
2022/07/21 09:13:52;;;;;;;21.23;19.73;;;24.30;99.90;;;;;;5011953;28;20478;-67
2022/07/21 09:16:37;;;;;;;20.93;19.40;;;24.10;99.90;;;;;;5013533;28;20537;-66
2022/07/21 09:19:06;;;;;;;20.70;19.30;;;24.30;99.90;;;;;;5014007;28;20748;-67
2022/07/21 09:21:34;;;;;;;21.67;20.17;;;24.30;99.90;;;;;;5014152;28;20519;-67
2022/07/21 09:24:18;;;;;;;21.97;20.03;;;24.20;99.90;;;;;;5013922;28;22695;-67
2022/07/21 09:27:04;;;;;;;21.07;19.67;;;23.80;99.90;;;;;;5014342;28;22815;-69
2022/07/21 09:29:45;;;;;;;20.93;19.47;;;23.50;99.90;;;;;;5015980;28;21337;-69
2022/07/21 09:32:34;;;;;;;21.57;20.00;;;23.20;99.90;;;;;;5013577;28;20469;-67
2022/07/21 09:35:05;;;;;;;21.00;19.40;;;23.10;99.90;;;;;;5008563;28;20460;-67
2022/07/21 09:37:33;;;;;;;21.60;20.00;;;22.80;99.90;;;;;;5013194;28;20481;-67
2022/07/21 09:40:05;;;;;;;22.03;20.10;;;22.60;99.90;;;;;;5013540;28;20463;-68
2022/07/21 09:42:34;;;;;;;20.93;19.23;;;22.40;99.90;;;;;;5014244;28;20480;-66
2022/07/21 09:45:02;;;;;;;19.73;18.10;;;22.30;99.90;;;;;;5013828;28;21083;-68
2022/07/21 09:47:31;;;;;;;21.87;19.97;;;22.10;99.90;;;;;;5027566;28;20464;-65
2022/07/21 09:50:00;;;;;;;20.97;19.37;;;22.10;99.90;;;;;;5026599;28;20841;-66
2022/07/21 09:52:34;;;;;;;20.37;18.60;;;21.90;99.90;;;;;;5012790;28;21063;-67
2022/07/21 09:55:04;;;;;;;20.33;18.53;;;21.70;99.90;;;;;;5012178;28;20456;-66
2022/07/21 09:57:31;;;;;;;22.20;19.90;;;21.60;99.90;;;;;;5011982;28;20452;-68
2022/07/21 09:59:58;;;;;;;19.57;18.07;;;21.70;99.90;;;;;;5010740;28;20507;-67
2022/07/21 10:02:27;;;;;;;19.97;18.17;;;21.70;99.90;;;;;;5008521;28;20834;-65
2022/07/21 10:04:59;;;;;;;19.50;18.00;;;21.70;99.90;;;;;;5013040;28;20455;-68
2022/07/21 10:07:27;;;;;;;19.67;17.97;;;21.80;99.90;;;;;;5012450;28;20456;-66
2022/07/21 10:09:57;;;;;;;20.23;18.20;;;21.90;99.90;;;;;;5010967;28;20474;-66
2022/07/21 10:12:24;;;;;;;21.20;19.37;;;21.70;99.90;;;;;;5013096;28;21099;-66
2022/07/21 10:14:52;;;;;;;21.70;19.90;;;21.70;99.90;;;;;;5012538;28;20485;-66
2022/07/21 10:17:20;;;;;;;22.27;20.40;;;21.50;99.90;;;;;;5010636;28;20464;-66
2022/07/21 10:19:57;;;;;;;27.77;25.57;;;21.30;99.90;;;;;;5012655;28;21112;-66
2022/07/21 10:22:35;;;;;;;29.80;27.40;;;21.10;99.90;;;;;;5011687;28;20488;-65
2022/07/21 10:25:04;;;;;;;32.37;29.60;;;20.60;99.90;;;;;;5010243;28;21048;-67
2022/07/21 10:27:31;;;;;;;31.90;28.90;;;20.30;99.90;;;;;;5030623;28;20830;-67
2022/07/21 10:30:00;;;;;;;30.33;27.70;;;20.10;99.90;;;;;;5034910;28;20455;-67
2022/07/21 10:32:32;;;;;;;30.77;27.83;;;20.00;99.90;;;;;;5021979;28;20467;-65
2022/07/21 10:35:01;;;;;;;29.27;26.80;;;19.90;99.90;;;;;;5010694;28;20456;-67
2022/07/21 10:37:50;;;;;;;29.00;26.40;;;19.80;99.90;;;;;;5012156;28;21390;-67
2022/07/21 10:40:41;;;;;;;33.37;28.50;;;19.70;99.90;;;;;;5012156;28;20732;-66
2022/07/21 10:43:37;;;;;;;30.30;27.00;;;19.60;99.90;;;;;;5011934;28;21182;-66
2022/07/21 10:46:04;;;;;;;28.03;25.40;;;19.70;99.90;;;;;;5011732;28;20482;-67
2022/07/21 10:48:49;;;;;;;29.20;26.60;;;19.80;99.90;;;;;;5011850;28;20461;-66
2022/07/21 10:51:17;;;;;;;27.70;25.27;;;19.90;99.90;;;;;;5012107;28;20465;-66
2022/07/21 10:53:46;;;;;;;25.83;23.10;;;19.90;99.90;;;;;;5012844;28;20551;-66
2022/07/21 10:56:28;;;;;;;26.00;23.27;;;20.10;99.90;;;;;;5009821;28;20479;-65
2022/07/21 10:58:55;;;;;;;23.40;21.27;;;20.00;99.90;;;;;;5011826;28;20464;-67
2022/07/21 11:01:25;;;;;;;24.00;21.70;;;20.00;99.90;;;;;;5010704;28;20487;-66
2022/07/21 11:04:07;;;;;;;25.73;23.13;;;20.00;99.90;;;;;;5010528;28;20496;-66
2022/07/21 11:06:36;;;;;;;23.93;21.63;;;19.70;99.90;;;;;;5010583;28;20550;-67
2022/07/21 11:09:13;;;;;;;23.83;21.60;;;19.60;99.90;;;;;;5009059;28;20756;-69
2022/07/21 11:11:58;;;;;;;19.50;17.90;;;19.60;99.90;;;;;;5009800;28;20468;-66
2022/07/21 11:14:37;;;;;;;20.77;18.67;;;19.70;99.90;;;;;;5011383;28;20459;-66
2022/07/21 11:17:04;;;;;;;22.47;20.17;;;19.60;99.90;;;;;;5008425;28;20969;-67
2022/07/21 11:19:35;;;;;;;20.63;19.00;;;19.60;99.90;;;;;;5009496;28;20547;-65
2022/07/21 11:22:05;;;;;;;18.50;17.13;;;19.40;99.90;;;;;;5010954;28;20963;-66
2022/07/21 11:24:32;;;;;;;18.33;16.90;;;19.40;99.90;;;;;;5006043;28;20838;-66
2022/07/21 11:27:05;;;;;;;18.93;17.23;;;19.50;99.90;;;;;;5027232;28;20568;-66
2022/07/21 11:29:33;;;;;;;18.47;16.67;;;19.50;99.90;;;;;;5027807;28;20560;-67
2022/07/21 11:32:01;;;;;;;18.37;16.60;;;19.50;99.90;;;;;;5012027;28;20516;-66
2022/07/21 11:34:38;;;;;;;17.73;16.23;;;19.40;99.90;;;;;;5008282;28;20471;-66
2022/07/21 11:37:05;;;;;;;18.93;15.93;;;19.30;99.90;;;;;;5008724;28;20492;-66
2022/07/21 11:39:33;;;;;;;18.30;16.60;;;19.30;99.90;;;;;;5008794;28;22489;-65
2022/07/21 11:42:05;;;;;;;16.90;15.37;;;19.40;99.90;;;;;;5008474;28;20488;-66
2022/07/21 11:44:32;;;;;;;17.83;16.40;;;19.50;99.90;;;;;;5009547;28;20456;-66
2022/07/21 11:47:00;;;;;;;18.57;16.70;;;19.50;99.90;;;;;;5010271;28;20471;-66
2022/07/21 11:49:28;;;;;;;17.17;15.67;;;19.30;99.90;;;;;;5009238;28;20918;-66
2022/07/21 11:51:58;;;;;;;16.60;15.20;;;19.50;99.90;;;;;;5010679;28;20460;-67
2022/07/21 11:54:27;;;;;;;16.07;14.67;;;19.40;99.90;;;;;;5011114;28;20475;-66
2022/07/21 11:56:55;;;;;;;16.50;15.20;;;19.40;99.90;;;;;;5009901;28;20468;-67
2022/07/21 11:59:24;;;;;;;16.80;15.00;;;19.30;99.90;;;;;;5010433;28;20522;-67
2022/07/21 12:01:54;;;;;;;18.13;15.90;;;19.20;99.90;;;;;;5010828;28;21139;-66
2022/07/21 12:04:39;;;;;;;22.23;15.73;;;19.20;99.90;;;;;;5011478;28;20974;-67
2022/07/21 12:07:08;;;;;;;16.63;14.93;;;19.20;99.90;;;;;;5009274;28;20463;-66
2022/07/21 12:09:35;;;;;;;21.10;16.80;;;19.10;99.90;;;;;;5008891;28;21085;-67
2022/07/21 12:12:02;;;;;;;16.50;14.93;;;19.10;99.90;;;;;;5009726;28;21580;-65
2022/07/21 12:14:50;;;;;;;15.30;14.00;;;19.10;99.90;;;;;;5010352;28;20586;-67
2022/07/21 12:17:32;;;;;;;12.00;10.80;;;19.10;99.90;;;;;;5008961;28;20499;-66
2022/07/21 12:19:59;;;;;;;11.00;10.30;;;18.90;99.90;;;;;;5007328;28;20559;-65
2022/07/21 12:22:34;;;;;;;12.40;11.20;;;18.70;99.90;;;;;;5007262;28;20637;-66
2022/07/21 12:25:01;;;;;;;12.37;11.37;;;18.70;99.90;;;;;;5007075;28;21567;-66
2022/07/21 12:27:29;;;;;;;13.97;12.77;;;18.50;99.90;;;;;;5008217;28;20544;-66
2022/07/21 12:29:57;;;;;;;13.23;12.23;;;18.40;99.90;;;;;;5027843;28;20544;-65
2022/07/21 12:32:44;;;;;;;14.13;12.93;;;18.50;99.90;;;;;;5026189;28;20467;-66
2022/07/21 12:35:26;;;;;;;14.70;13.60;;;18.50;99.90;;;;;;5008446;28;21047;-67
2022/07/21 12:38:02;;;;;;;16.80;15.40;;;18.60;99.90;;;;;;5008545;28;20483;-67
2022/07/21 12:40:31;;;;;;;16.43;14.93;;;18.60;99.90;;;;;;5007334;28;20879;-67